createdAt,value
2019-03-20T00:01:43.342Z,28.10
2019-03-20T00:03:40.603Z,17.67
2019-03-20T00:05:44.770Z,71.70
2019-03-20T00:07:49.627Z,598.37
2019-03-20T00:09:53.954Z,501.87
2019-03-20T00:11:58.273Z,225.93
2019-03-20T00:14:02.973Z,100.73
2019-03-20T00:16:07.189Z,41.13
2019-03-20T00:18:11.352Z,22.50
2019-03-20T00:20:15.938Z,14.73
2019-03-20T00:22:20.673Z,12.53
2019-03-20T00:24:25.101Z,61.10
2019-03-20T00:26:29.584Z,230.73
2019-03-20T00:28:33.771Z,44.90
2019-03-20T00:30:38.291Z,19.23
2019-03-20T00:32:42.755Z,12.90
2019-03-20T00:34:47.099Z,10.63
2019-03-20T00:36:51.579Z,9.43
2019-03-20T00:38:56.427Z,8.70
2019-03-20T00:41:00.956Z,8.83
2019-03-20T00:43:05.134Z,9.43
2019-03-20T00:45:11.015Z,45.17
2019-03-20T00:47:15.541Z,531.97
2019-03-20T00:49:20.017Z,522.03
2019-03-20T00:51:24.754Z,285.30
2019-03-20T00:53:29.604Z,134.97
2019-03-20T00:55:34.145Z,353.60
2019-03-20T00:57:39.121Z,509.77
2019-03-20T00:59:43.571Z,574.20
2019-03-20T01:01:47.881Z,264.53
2019-03-20T01:03:52.325Z,104.30
2019-03-20T01:05:57.539Z,43.53
2019-03-20T01:08:01.850Z,16.87
2019-03-20T01:10:07.232Z,31.63
2019-03-20T01:12:12.010Z,155.50
2019-03-20T01:14:16.530Z,184.37
2019-03-20T01:16:20.984Z,81.87
2019-03-20T01:18:25.728Z,20.63
2019-03-20T01:20:30.389Z,11.13
2019-03-20T01:22:34.919Z,8.40
2019-03-20T01:24:39.316Z,8.20
2019-03-20T01:26:43.546Z,8.70
2019-03-20T01:28:48.012Z,7.07
2019-03-20T01:30:52.429Z,82.20
2019-03-20T01:32:57.879Z,10.80
2019-03-20T01:35:02.295Z,7.43
2019-03-20T01:37:06.847Z,7.10
2019-03-20T01:39:11.177Z,6.33
2019-03-20T01:41:16.260Z,18.73
2019-03-20T01:43:20.639Z,26.73
2019-03-20T01:45:25.504Z,11.53
2019-03-20T01:47:30.232Z,7.63
2019-03-20T01:49:34.838Z,7.20
2019-03-20T01:51:39.284Z,6.80
2019-03-20T01:53:43.636Z,6.40
2019-03-20T01:55:48.403Z,5.87
2019-03-20T01:57:52.939Z,6.87
2019-03-20T01:59:57.330Z,6.50
2019-03-20T02:02:01.606Z,6.50
2019-03-20T02:04:06.160Z,5.90
2019-03-20T02:06:10.414Z,5.50
2019-03-20T02:08:15.423Z,5.23
2019-03-20T02:10:19.674Z,5.97
2019-03-20T02:12:23.902Z,6.30
2019-03-20T02:14:28.457Z,5.87
2019-03-20T02:16:33.238Z,5.90
2019-03-20T02:18:40.108Z,4.87
2019-03-20T02:20:44.543Z,5.07
2019-03-20T02:22:49.430Z,5.37
2019-03-20T02:24:53.821Z,4.93
2019-03-20T02:26:58.133Z,5.20
2019-03-20T02:29:02.877Z,5.70
2019-03-20T02:31:07.454Z,4.97
2019-03-20T02:33:11.942Z,5.40
2019-03-20T02:35:16.645Z,5.07
2019-03-20T02:37:20.977Z,5.67
2019-03-20T02:39:25.552Z,5.07
2019-03-20T02:41:30.407Z,5.57
2019-03-20T02:43:34.783Z,5.00
2019-03-20T02:45:39.534Z,5.40
2019-03-20T02:47:44.069Z,4.70
2019-03-20T02:49:48.608Z,5.57
2019-03-20T02:51:53.112Z,5.30
2019-03-20T02:53:57.751Z,5.20
2019-03-20T02:56:03.045Z,5.43
2019-03-20T02:58:09.440Z,4.77
2019-03-20T03:00:15.518Z,5.10
2019-03-20T03:02:22.122Z,5.10
2019-03-20T03:04:28.382Z,4.70
2019-03-20T03:06:32.719Z,4.83
2019-03-20T03:08:37.554Z,4.47
2019-03-20T03:10:41.987Z,4.90
2019-03-20T03:12:46.411Z,4.17
2019-03-20T03:14:51.346Z,4.90
2019-03-20T03:16:55.662Z,4.53
2019-03-20T03:18:59.909Z,4.53
2019-03-20T03:21:04.479Z,4.30
2019-03-20T03:23:09.025Z,4.83
2019-03-20T03:25:13.445Z,4.10
2019-03-20T03:27:17.768Z,4.70
2019-03-20T03:29:22.143Z,4.90
2019-03-20T03:31:26.891Z,4.53
2019-03-20T03:33:31.169Z,5.00
2019-03-20T03:35:35.420Z,5.00
2019-03-20T03:37:39.873Z,4.33
2019-03-20T03:39:44.118Z,4.47
2019-03-20T03:41:48.342Z,4.17
2019-03-20T03:43:52.658Z,4.20
2019-03-20T03:45:57.463Z,4.07
2019-03-20T03:48:01.948Z,5.20
2019-03-20T03:50:07.959Z,3.93
2019-03-20T03:52:15.384Z,4.20
2019-03-20T03:54:19.638Z,4.00
2019-03-20T03:56:23.987Z,4.00
2019-03-20T03:58:29.149Z,3.97
2019-03-20T04:00:33.399Z,4.57
2019-03-20T04:02:37.656Z,3.90
2019-03-20T04:04:41.909Z,3.90
2019-03-20T04:06:46.705Z,4.20
2019-03-20T04:08:50.866Z,3.80
2019-03-20T04:10:55.180Z,4.20
2019-03-20T04:12:59.807Z,3.77
2019-03-20T04:15:04.330Z,3.77
2019-03-20T04:17:25.467Z,4.10
2019-03-20T04:19:31.456Z,3.53
2019-03-20T04:21:35.954Z,4.00
2019-03-20T04:23:40.454Z,3.77
2019-03-20T04:25:45.311Z,4.10
2019-03-20T04:27:49.931Z,3.60
2019-03-20T04:29:54.305Z,3.70
2019-03-20T04:31:58.631Z,3.83
2019-03-20T04:34:02.892Z,4.03
2019-03-20T04:36:07.152Z,3.70
2019-03-20T04:38:11.750Z,3.50
2019-03-20T04:40:16.122Z,3.63
2019-03-20T04:42:20.858Z,3.60
2019-03-20T04:44:25.212Z,3.70
2019-03-20T04:46:29.651Z,4.10
2019-03-20T04:48:34.613Z,3.23
2019-03-20T04:50:38.915Z,3.83
2019-03-20T04:52:43.254Z,3.90
2019-03-20T04:54:48.065Z,3.20
2019-03-20T04:56:52.395Z,3.57
2019-03-20T04:58:56.537Z,3.37
2019-03-20T05:01:01.146Z,3.37
2019-03-20T05:03:05.619Z,3.23
2019-03-20T05:05:10.131Z,3.60
2019-03-20T05:07:14.855Z,3.80
2019-03-20T05:09:19.461Z,3.37
2019-03-20T05:11:28.193Z,3.23
2019-03-20T05:13:35.498Z,3.37
2019-03-20T05:15:40.368Z,3.80
2019-03-20T05:17:44.806Z,4.17
2019-03-20T05:19:51.927Z,3.83
2019-03-20T05:21:56.966Z,3.83
2019-03-20T05:24:01.888Z,3.57
2019-03-20T05:26:06.814Z,3.70
2019-03-20T05:28:11.211Z,3.63
2019-03-20T05:30:16.401Z,3.60
2019-03-20T05:32:21.322Z,4.00
2019-03-20T05:34:25.696Z,4.10
2019-03-20T05:36:29.918Z,3.60
2019-03-20T05:38:34.786Z,4.23
2019-03-20T05:40:38.926Z,4.20
2019-03-20T05:42:43.194Z,3.40
2019-03-20T05:44:47.791Z,3.70
2019-03-20T05:46:51.941Z,4.07
2019-03-20T05:48:56.132Z,3.53
2019-03-20T05:51:00.819Z,4.60
2019-03-20T05:53:04.969Z,4.43
2019-03-20T05:55:09.373Z,4.30
2019-03-20T05:57:14.109Z,4.13
2019-03-20T05:59:18.289Z,3.77
2019-03-20T06:01:22.827Z,3.60
2019-03-20T06:03:27.491Z,3.60
2019-03-20T06:05:31.870Z,4.80
2019-03-20T06:07:36.067Z,4.80
2019-03-20T06:09:41.609Z,4.47
2019-03-20T06:11:46.649Z,4.80
2019-03-20T06:13:51.149Z,4.70
2019-03-20T06:15:58.193Z,4.50
2019-03-20T06:18:03.075Z,4.60
2019-03-20T06:20:08.718Z,4.27
2019-03-20T06:22:13.230Z,4.27
2019-03-20T06:24:17.872Z,4.77
2019-03-20T06:26:22.778Z,5.00
2019-03-20T06:28:27.407Z,5.40
2019-03-20T06:30:41.089Z,4.57
2019-03-20T06:32:45.480Z,4.43
2019-03-20T06:34:50.075Z,4.63
2019-03-20T06:36:54.885Z,4.20
2019-03-20T06:38:59.385Z,4.93
2019-03-20T06:41:04.678Z,4.37
2019-03-20T06:43:10.003Z,5.40
2019-03-20T06:45:14.295Z,5.70
2019-03-20T06:47:20.428Z,5.33
2019-03-20T06:49:25.330Z,6.17
2019-03-20T06:51:30.846Z,6.60
2019-03-20T06:53:35.459Z,9.63
2019-03-20T06:55:39.887Z,39.13
2019-03-20T06:57:44.141Z,143.37
2019-03-20T07:00:38.538Z,212.83
2019-03-20T07:02:46.162Z,162.93
2019-03-20T07:05:30.152Z,37.20
2019-03-20T07:07:44.193Z,19.63
2019-03-20T07:10:24.634Z,15.10
2019-03-20T07:12:29.520Z,48.63
2019-03-20T07:14:34.081Z,382.77
2019-03-20T07:16:39.125Z,387.37
2019-03-20T07:18:43.736Z,48.80
2019-03-20T07:20:48.151Z,17.80
2019-03-20T07:22:54.072Z,300.97
2019-03-20T07:24:58.378Z,21.70
2019-03-20T07:27:02.946Z,33.93
2019-03-20T07:29:07.514Z,160.20
2019-03-20T07:31:15.713Z,598.53
2019-03-20T07:33:17.887Z,784.60
2019-03-20T07:35:22.822Z,514.80
2019-03-20T07:37:41.101Z,692.93
2019-03-20T07:39:45.730Z,161.43
2019-03-20T07:41:51.162Z,48.70
2019-03-20T07:43:55.361Z,27.50
2019-03-20T07:45:59.714Z,17.07
2019-03-20T07:48:04.351Z,15.13
2019-03-20T07:50:10.107Z,12.63
2019-03-20T07:52:17.315Z,12.93
2019-03-20T07:54:22.718Z,13.23
2019-03-20T07:56:27.469Z,11.50
2019-03-20T07:58:32.649Z,12.27
2019-03-20T08:03:30.842Z,362.00
2019-03-20T08:05:36.126Z,311.83
2019-03-20T08:07:40.755Z,325.93
2019-03-20T08:09:45.331Z,319.87
2019-03-20T08:11:49.532Z,305.30
2019-03-20T08:13:54.276Z,318.10
2019-03-20T08:15:58.758Z,435.63
2019-03-20T08:18:04.591Z,499.00
2019-03-20T08:20:10.754Z,510.80
2019-03-20T08:22:15.660Z,486.20
2019-03-20T08:24:20.159Z,456.70
2019-03-20T08:26:25.131Z,461.37
2019-03-20T08:28:29.592Z,463.30
2019-03-20T08:30:33.828Z,456.60
2019-03-20T08:32:38.449Z,446.37
2019-03-20T08:34:42.681Z,529.33
2019-03-20T08:36:46.927Z,647.00
2019-03-20T08:38:51.582Z,650.70
2019-03-20T08:40:56.181Z,603.97
2019-03-20T08:43:00.435Z,552.23
2019-03-20T08:45:05.613Z,550.83
2019-03-20T08:47:10.298Z,548.90
2019-03-20T08:49:14.596Z,557.30
2019-03-20T08:51:19.105Z,657.03
2019-03-20T08:53:23.360Z,761.07
2019-03-20T08:55:28.212Z,836.40
2019-03-20T08:57:33.416Z,777.90
2019-03-20T08:59:37.602Z,720.60
2019-03-20T09:01:42.792Z,669.43
2019-03-20T09:03:47.315Z,649.10
2019-03-20T09:05:51.665Z,645.13
2019-03-20T09:07:55.936Z,645.37
2019-03-20T09:10:01.302Z,633.90
2019-03-20T09:12:05.874Z,630.67
2019-03-20T09:14:10.307Z,614.30
2019-03-20T09:16:18.230Z,664.67
2019-03-20T09:18:22.519Z,756.20
2019-03-20T09:20:26.953Z,718.37
2019-03-20T09:22:31.646Z,715.87
2019-03-20T09:24:37.980Z,685.70
2019-03-20T09:26:42.341Z,578.07
2019-03-20T09:28:48.011Z,452.87
2019-03-20T09:30:52.299Z,413.73
2019-03-20T09:32:56.571Z,366.23
2019-03-20T09:35:03.285Z,528.07
2019-03-20T09:37:07.787Z,482.40
2019-03-20T09:39:12.222Z,349.63
2019-03-20T09:41:17.592Z,381.53
2019-03-20T09:43:21.721Z,309.40
2019-03-20T09:45:27.167Z,244.40
2019-03-20T09:47:31.378Z,312.40
2019-03-20T09:49:35.843Z,281.97
2019-03-20T09:51:40.699Z,270.67
2019-03-20T09:53:45.340Z,253.63
2019-03-20T09:55:52.756Z,245.57
2019-03-20T09:57:57.035Z,263.20
2019-03-20T10:00:01.843Z,579.07
2019-03-20T10:02:07.376Z,595.50
2019-03-20T10:04:14.901Z,401.00
2019-03-20T10:06:23.781Z,410.33
2019-03-20T10:08:28.611Z,367.20
2019-03-20T10:10:33.289Z,343.40
2019-03-20T10:12:38.349Z,500.37
2019-03-20T10:14:42.716Z,387.20
2019-03-20T10:16:46.906Z,271.53
2019-03-20T10:18:52.088Z,319.57
2019-03-20T10:20:58.577Z,229.77
2019-03-20T10:23:03.245Z,358.20
2019-03-20T10:25:08.541Z,294.73
2019-03-20T10:27:12.749Z,276.40
2019-03-20T10:29:17.193Z,694.27
2019-03-20T10:31:21.763Z,509.43
2019-03-20T10:33:26.008Z,496.13
2019-03-20T10:35:30.600Z,544.40
2019-03-20T10:37:34.845Z,352.93
2019-03-20T10:39:39.072Z,274.93
2019-03-20T10:41:43.299Z,416.37
2019-03-20T10:43:47.879Z,423.33
2019-03-20T10:45:52.040Z,626.43
2019-03-20T10:47:56.262Z,700.80
2019-03-20T10:50:00.785Z,686.17
2019-03-20T10:52:05.115Z,399.70
2019-03-20T10:54:10.611Z,264.53
2019-03-20T10:56:15.198Z,999.90
2019-03-20T10:58:19.933Z,381.60
2019-03-20T11:00:24.316Z,290.37
2019-03-20T11:02:29.385Z,716.87
2019-03-20T11:04:33.664Z,272.17
2019-03-20T11:06:38.471Z,230.07
2019-03-20T11:08:42.592Z,191.17
2019-03-20T11:10:48.966Z,205.80
2019-03-20T11:12:53.120Z,402.33
2019-03-20T11:14:57.980Z,656.27
2019-03-20T11:17:02.140Z,999.90
2019-03-20T11:19:06.396Z,748.83
2019-03-20T11:21:11.762Z,521.53
2019-03-20T11:23:16.011Z,643.43
2019-03-20T11:25:20.578Z,785.50
2019-03-20T11:27:27.619Z,548.63
2019-03-20T11:29:31.354Z,791.70
2019-03-20T11:31:37.572Z,685.83
2019-03-20T11:33:41.813Z,377.23
2019-03-20T11:35:47.703Z,255.17
2019-03-20T11:37:52.124Z,709.13
2019-03-20T11:39:57.437Z,522.80
2019-03-20T11:42:01.974Z,643.13
2019-03-20T11:44:06.570Z,547.53
2019-03-20T11:46:11.679Z,394.60
2019-03-20T11:48:16.027Z,314.47
2019-03-20T11:50:22.916Z,645.27
2019-03-20T11:52:27.399Z,470.17
2019-03-20T11:54:32.187Z,410.37
2019-03-20T11:56:39.080Z,273.00
2019-03-20T11:58:45.014Z,806.83
2019-03-20T12:00:49.600Z,999.90
2019-03-20T12:02:54.229Z,567.93
2019-03-20T12:05:00.670Z,448.17
2019-03-20T12:07:05.546Z,264.73
2019-03-20T12:09:10.524Z,295.43
2019-03-20T12:11:16.108Z,281.00
2019-03-20T12:13:20.774Z,368.93
2019-03-20T12:15:25.067Z,488.13
2019-03-20T12:17:31.325Z,251.63
2019-03-20T12:19:44.677Z,204.73
2019-03-20T12:21:46.970Z,176.90
2019-03-20T12:23:53.032Z,143.93
2019-03-20T12:25:58.752Z,392.43
2019-03-20T12:28:07.637Z,619.17
2019-03-20T12:30:15.387Z,506.83
2019-03-20T12:32:22.224Z,381.43
2019-03-20T12:34:26.936Z,999.90
2019-03-20T12:36:35.958Z,380.97
2019-03-20T12:38:41.806Z,446.73
2019-03-20T12:40:47.858Z,326.77
2019-03-20T12:42:52.438Z,261.50
2019-03-20T12:44:56.614Z,292.70
2019-03-20T12:47:00.897Z,262.43
2019-03-20T12:49:05.777Z,253.07
2019-03-20T12:51:10.324Z,283.73
2019-03-20T12:53:15.716Z,411.47
2019-03-20T12:55:20.953Z,371.13
2019-03-20T12:57:25.541Z,394.73
2019-03-20T12:59:31.390Z,920.33
2019-03-20T13:01:57.958Z,398.93
2019-03-20T13:04:04.174Z,359.77
2019-03-20T13:06:12.910Z,544.77
2019-03-20T13:08:17.968Z,365.37
2019-03-20T13:10:27.012Z,415.10
2019-03-20T13:12:32.215Z,383.60
2019-03-20T13:14:37.893Z,427.00
2019-03-20T13:16:42.372Z,377.03
2019-03-20T13:18:47.151Z,383.00
2019-03-20T13:20:54.508Z,695.47
2019-03-20T13:23:02.290Z,376.90
2019-03-20T13:25:11.839Z,543.10
2019-03-20T13:27:17.216Z,355.63
2019-03-20T13:29:24.473Z,350.23
2019-03-20T13:31:34.934Z,911.83
2019-03-20T13:33:40.347Z,369.97
2019-03-20T13:35:45.147Z,999.90
2019-03-20T13:37:49.598Z,723.57
2019-03-20T13:39:57.372Z,537.57
2019-03-20T13:42:01.718Z,393.17
2019-03-20T13:44:06.008Z,416.53
2019-03-20T13:46:11.013Z,336.83
2019-03-20T13:48:21.373Z,303.70
2019-03-20T13:50:27.213Z,364.60
2019-03-20T13:52:32.292Z,304.80
2019-03-20T13:54:36.810Z,702.30
2019-03-20T13:56:43.647Z,341.73
2019-03-20T13:58:48.279Z,275.00
2019-03-20T14:00:52.738Z,312.70
2019-03-20T14:02:59.562Z,318.83
2019-03-20T14:05:06.910Z,274.53
2019-03-20T14:07:12.002Z,427.20
2019-03-20T14:09:17.388Z,289.30
2019-03-20T14:11:27.489Z,325.07
2019-03-20T14:14:10.918Z,359.17
2019-03-20T14:18:53.017Z,390.97
2019-03-20T14:20:58.107Z,386.70
2019-03-20T14:23:06.218Z,368.30
2019-03-20T14:25:12.251Z,478.37
2019-03-20T14:27:16.998Z,371.27
2019-03-20T14:29:23.738Z,362.77
2019-03-20T14:31:28.384Z,354.10
2019-03-20T14:33:35.613Z,445.67
2019-03-20T14:35:44.308Z,398.93
2019-03-20T14:37:49.870Z,882.50
2019-03-20T14:39:57.552Z,384.13
2019-03-20T14:42:11.812Z,510.57
2019-03-20T14:44:16.287Z,472.00
2019-03-20T14:46:21.987Z,400.83
2019-03-20T14:48:28.982Z,405.67
2019-03-20T14:50:33.239Z,485.40
2019-03-20T14:52:41.777Z,358.47
2019-03-20T14:54:47.601Z,691.40
2019-03-20T14:56:53.229Z,999.90
2019-03-20T14:59:00.255Z,884.90
2019-03-20T15:01:09.452Z,305.07
2019-03-20T15:03:15.558Z,305.30
2019-03-20T15:05:23.532Z,272.37
2019-03-20T15:07:28.861Z,247.70
2019-03-20T15:09:33.237Z,231.70
2019-03-20T15:11:37.561Z,225.90
2019-03-20T15:13:42.746Z,216.77
2019-03-20T15:15:53.402Z,207.73
2019-03-20T15:18:00.599Z,204.43
2019-03-20T15:20:06.511Z,195.50
2019-03-20T15:22:11.019Z,202.27
2019-03-20T15:24:16.792Z,225.57
2019-03-20T15:26:22.040Z,194.57
2019-03-20T15:28:29.164Z,904.57
2019-03-20T15:30:34.531Z,658.67
2019-03-20T15:32:41.454Z,484.57
2019-03-20T15:34:49.475Z,713.67
2019-03-20T15:36:53.924Z,477.97
2019-03-20T15:38:58.319Z,440.17
2019-03-20T15:41:04.483Z,483.20
2019-03-20T15:43:13.413Z,481.97
2019-03-20T15:45:20.100Z,459.93
2019-03-20T15:47:29.261Z,441.10
2019-03-20T15:49:35.245Z,428.87
2019-03-20T15:51:42.884Z,431.87
2019-03-20T15:53:48.033Z,416.07
2019-03-20T15:55:54.718Z,396.97
2019-03-20T15:58:07.708Z,396.97
2019-03-20T16:00:15.150Z,383.80
2019-03-20T16:02:23.073Z,378.10
2019-03-20T16:04:27.552Z,364.70
2019-03-20T16:06:31.816Z,363.37
2019-03-20T16:08:37.616Z,345.07
2019-03-20T16:10:43.283Z,364.97
2019-03-20T16:12:49.589Z,339.80
2019-03-20T16:14:54.313Z,323.33
2019-03-20T16:16:59.602Z,319.07
2019-03-20T16:19:07.059Z,323.00
2019-03-20T16:21:11.712Z,308.70
2019-03-20T16:23:17.197Z,291.30
2019-03-20T16:25:21.960Z,299.63
2019-03-20T16:27:26.940Z,390.87
2019-03-20T16:29:31.797Z,605.27
2019-03-20T16:31:37.226Z,505.90
2019-03-20T16:33:45.388Z,457.10
2019-03-20T16:35:50.396Z,497.63
2019-03-20T16:37:54.746Z,477.87
2019-03-20T16:40:01.004Z,759.33
2019-03-20T16:42:06.224Z,468.97
2019-03-20T16:44:10.990Z,543.70
2019-03-20T16:46:18.535Z,527.30
2019-03-20T16:48:23.798Z,511.10
2019-03-20T16:50:29.401Z,506.77
2019-03-20T16:52:34.635Z,432.43
2019-03-20T16:54:40.067Z,409.80
2019-03-20T16:56:49.600Z,395.40
2019-03-20T16:58:55.034Z,382.90
2019-03-20T17:01:00.866Z,385.60
2019-03-20T17:03:06.798Z,369.70
2019-03-20T17:05:11.096Z,362.70
2019-03-20T17:07:15.500Z,356.87
2019-03-20T17:09:20.326Z,689.73
2019-03-20T17:11:37.943Z,896.37
2019-03-20T17:13:33.903Z,527.67
2019-03-20T17:15:39.848Z,999.90
2019-03-20T17:17:45.487Z,579.53
2019-03-20T17:19:50.084Z,577.50
2019-03-20T17:21:55.036Z,999.90
2019-03-20T17:23:59.894Z,999.90
2019-03-20T17:26:05.966Z,631.73
2019-03-20T17:28:11.099Z,489.47
2019-03-20T17:30:34.969Z,455.30
2019-03-20T17:32:40.445Z,449.97
2019-03-20T17:34:45.908Z,347.83
2019-03-20T17:36:59.964Z,314.23
2019-03-20T17:39:12.286Z,352.23
2019-03-20T17:41:19.477Z,303.90
2019-03-20T17:43:27.663Z,283.73
2019-03-20T17:45:44.047Z,264.33
2019-03-20T17:47:54.203Z,276.83
2019-03-20T17:50:00.323Z,282.53
2019-03-20T17:52:05.068Z,283.90
2019-03-20T17:54:10.198Z,273.97
2019-03-20T17:56:14.955Z,261.50
2019-03-20T17:58:27.909Z,260.53
2019-03-20T18:00:36.304Z,258.10
2019-03-20T18:02:42.432Z,254.50
2019-03-20T18:04:46.980Z,245.47
2019-03-20T18:06:51.439Z,237.63
2019-03-20T18:08:55.731Z,239.53
2019-03-20T18:11:00.504Z,228.10
2019-03-20T18:13:06.637Z,226.67
2019-03-20T18:15:12.648Z,223.20
2019-03-20T18:17:17.678Z,213.60
2019-03-20T18:19:23.744Z,210.27
2019-03-20T18:21:28.022Z,209.40
2019-03-20T18:23:32.585Z,208.67
2019-03-20T18:25:37.200Z,195.43
2019-03-20T18:27:42.117Z,198.20
2019-03-20T18:29:46.447Z,188.20
2019-03-20T18:31:51.332Z,189.07
2019-03-20T18:33:56.305Z,178.70
2019-03-20T18:36:02.202Z,185.10
2019-03-20T18:38:07.983Z,178.13
2019-03-20T18:40:14.215Z,172.63
2019-03-20T18:42:18.864Z,172.13
2019-03-20T18:44:23.223Z,163.47
2019-03-20T18:46:28.212Z,163.03
2019-03-20T18:48:32.565Z,156.50
2019-03-20T18:50:37.050Z,157.27
2019-03-20T18:52:41.304Z,154.67
2019-03-20T18:54:46.098Z,154.40
2019-03-20T18:56:52.016Z,151.30
2019-03-20T18:59:02.862Z,146.57
2019-03-20T19:01:09.953Z,146.87
2019-03-20T19:03:14.239Z,147.20
2019-03-20T19:05:22.667Z,142.83
2019-03-20T19:07:27.722Z,140.17
2019-03-20T19:09:33.156Z,138.40
2019-03-20T19:11:38.556Z,134.80
2019-03-20T19:13:45.268Z,136.37
2019-03-20T19:15:51.214Z,126.37
2019-03-20T19:17:55.769Z,130.70
2019-03-20T19:20:00.488Z,129.70
2019-03-20T19:22:05.210Z,124.33
2019-03-20T19:24:11.559Z,121.83
2019-03-20T19:26:16.123Z,118.80
2019-03-20T19:28:21.603Z,119.80
2019-03-20T19:30:26.464Z,116.73
2019-03-20T19:32:30.678Z,114.37
2019-03-20T19:34:35.524Z,109.53
2019-03-20T19:36:40.453Z,112.07
2019-03-20T19:38:45.588Z,112.10
2019-03-20T19:40:50.145Z,106.37
2019-03-20T19:42:54.631Z,107.37
2019-03-20T19:44:59.321Z,101.33
2019-03-20T19:47:04.247Z,104.10
2019-03-20T19:49:08.773Z,99.40
2019-03-20T19:51:13.179Z,99.37
2019-03-20T19:53:17.925Z,94.17
2019-03-20T19:55:22.964Z,95.53
2019-03-20T19:57:27.683Z,92.07
2019-03-20T19:59:32.324Z,94.20
2019-03-20T20:01:37.423Z,87.00
2019-03-20T20:03:41.922Z,86.07
2019-03-20T20:05:46.605Z,85.50
2019-03-20T20:07:54.458Z,82.73
2019-03-20T20:09:59.351Z,77.13
2019-03-20T20:12:07.498Z,82.43
2019-03-20T20:14:11.953Z,79.57
2019-03-20T20:16:16.390Z,74.87
2019-03-20T20:18:20.587Z,76.80
2019-03-20T20:20:26.981Z,73.73
2019-03-20T20:22:32.184Z,73.13
2019-03-20T20:24:37.656Z,75.30
2019-03-20T20:26:42.167Z,71.07
2019-03-20T20:28:46.367Z,69.63
2019-03-20T20:30:53.511Z,66.20
2019-03-20T20:33:01.739Z,67.90
2019-03-20T20:35:06.561Z,66.40
2019-03-20T20:37:11.311Z,65.63
2019-03-20T20:39:15.928Z,63.40
2019-03-20T20:41:22.227Z,65.03
2019-03-20T20:43:31.349Z,63.27
2019-03-20T20:45:35.979Z,63.60
2019-03-20T20:47:40.190Z,62.23
2019-03-20T20:49:44.627Z,58.90
2019-03-20T20:51:49.224Z,60.37
2019-03-20T20:53:56.960Z,59.10
2019-03-20T20:56:02.759Z,57.13
2019-03-20T20:58:07.101Z,57.73
2019-03-20T21:00:18.995Z,56.53
2019-03-20T21:02:24.502Z,56.37
2019-03-20T21:04:30.779Z,55.80
2019-03-20T21:06:38.845Z,55.77
2019-03-20T21:08:50.143Z,54.47
2019-03-20T21:10:54.902Z,54.50
2019-03-20T21:13:00.468Z,53.53
2019-03-20T21:15:18.179Z,53.00
2019-03-20T21:17:38.834Z,50.90
2019-03-20T21:19:47.412Z,54.23
2019-03-20T21:22:32.211Z,52.80
2019-03-20T21:24:37.393Z,53.87
2019-03-20T21:26:56.791Z,50.37
2019-03-20T21:29:39.464Z,50.43
2019-03-20T21:31:54.352Z,50.63
2019-03-20T21:34:36.402Z,49.37
2019-03-20T21:37:16.758Z,49.00
2019-03-20T21:39:21.743Z,48.83
2019-03-20T21:42:07.209Z,49.27
2019-03-20T21:44:53.011Z,48.83
2019-03-20T21:47:33.833Z,48.17
2019-03-20T21:49:45.162Z,45.80
2019-03-20T21:51:51.320Z,47.97
2019-03-20T21:54:32.038Z,45.60
2019-03-20T21:56:44.278Z,47.70
2019-03-20T21:59:09.763Z,290.80
2019-03-20T22:02:09.246Z,685.03
2019-03-20T22:04:14.756Z,506.53
2019-03-20T22:06:55.222Z,444.80
2019-03-20T22:09:08.295Z,399.73
2019-03-20T22:11:49.436Z,389.93
2019-03-20T22:13:59.710Z,377.47
2019-03-20T22:16:43.116Z,367.63
2019-03-20T22:19:43.305Z,353.47
2019-03-20T22:22:15.494Z,349.47
2019-03-20T22:25:24.845Z,335.60
2019-03-20T22:28:18.078Z,330.63
2019-03-20T22:30:25.670Z,625.63
2019-03-20T22:33:07.541Z,712.43
2019-03-20T22:35:57.573Z,636.57
2019-03-20T22:38:03.890Z,590.83
2019-03-20T22:40:53.702Z,586.77
2019-03-20T22:43:06.774Z,568.73
2019-03-20T22:45:44.489Z,559.47
2019-03-20T22:48:16.515Z,552.63
2019-03-20T22:50:29.080Z,733.27
2019-03-20T22:53:47.920Z,710.97
2019-03-20T22:56:13.727Z,812.73
2019-03-20T22:58:50.695Z,716.10
2019-03-20T23:00:56.373Z,694.23
2019-03-20T23:03:06.027Z,693.27
2019-03-20T23:05:14.971Z,673.97
2019-03-20T23:07:20.015Z,841.40
2019-03-20T23:09:24.958Z,813.67
2019-03-20T23:11:30.161Z,733.00
2019-03-20T23:13:41.482Z,768.13
2019-03-20T23:15:42.125Z,822.53
2019-03-20T23:17:47.081Z,885.20
2019-03-20T23:19:53.472Z,760.57
2019-03-20T23:21:58.591Z,684.73
2019-03-20T23:24:04.695Z,656.87
2019-03-20T23:26:10.288Z,634.27
2019-03-20T23:28:15.320Z,882.73
2019-03-20T23:30:23.509Z,761.37
2019-03-20T23:32:28.822Z,764.27
2019-03-20T23:34:33.668Z,672.27
2019-03-20T23:36:39.422Z,630.30
2019-03-20T23:38:44.557Z,602.07
2019-03-20T23:40:49.370Z,586.90
2019-03-20T23:42:54.597Z,564.00
2019-03-20T23:44:59.379Z,551.20
2019-03-20T23:47:04.207Z,548.17
2019-03-20T23:49:27.216Z,543.63
2019-03-20T23:51:32.406Z,523.20
2019-03-20T23:53:38.655Z,527.77
2019-03-20T23:55:43.894Z,509.70
2019-03-20T23:57:48.710Z,499.00
2019-03-20T23:59:54.264Z,502.23
